Time;durP1;ratioP1;P1;durP2;ratioP2;P2;SDS_P1;SDS_P2;PMS_P1;PMS_P2;Temp;Humidity;BMP_temperature;BMP_pressure;BME280_temperature;BME280_humidity;BME280_pressure;Samples;Min_cycle;Max_cycle;Signal;HPM_P1;HPM_P2
2022/08/07 00:00:24;;;;;;;6.43;2.28;;;;;;;15.48;52.61;101905.63;5053696;28;20405;-55
2022/08/07 00:02:51;;;;;;;7.30;2.08;;;;;;;15.45;52.61;101904.00;5051363;28;20056;-60
2022/08/07 00:05:20;;;;;;;3.25;2.00;;;;;;;15.44;52.97;101907.63;5047685;28;20053;-61
2022/08/07 00:07:51;;;;;;;2.75;1.60;;;;;;;15.42;52.85;101904.19;5050455;28;20055;-60
2022/08/07 00:10:26;;;;;;;4.30;2.28;;;;;;;15.40;52.84;101903.44;5052994;28;20444;-60
2022/08/07 00:13:01;;;;;;;4.97;1.45;;;;;;;15.39;53.10;101900.84;5052815;28;20053;-59
2022/08/07 00:15:49;;;;;;;3.08;1.92;;;;;;;15.37;53.57;101906.25;5040857;28;20037;-56
2022/08/07 00:18:19;;;;;;;4.60;1.90;;;;;;;15.34;53.72;101905.56;5057671;28;20068;-57
2022/08/07 00:20:56;;;;;;;3.60;1.98;;;;;;;15.31;54.53;101905.75;5049065;28;20068;-59
2022/08/07 00:23:30;;;;;;;2.08;1.45;;;;;;;15.26;54.41;101906.00;5041260;28;20049;-55
2022/08/07 00:25:59;;;;;;;4.68;1.98;;;;;;;15.20;53.98;101909.03;5054981;28;20092;-58
2022/08/07 00:28:44;;;;;;;2.80;1.55;;;;;;;15.17;54.19;101911.84;5047661;28;20053;-59
2022/08/07 00:31:24;;;;;;;3.85;1.85;;;;;;;15.16;53.68;101910.16;5051232;28;20424;-55
2022/08/07 00:34:07;;;;;;;4.50;1.67;;;;;;;15.15;54.16;101911.94;5051079;28;20045;-53
2022/08/07 00:36:37;;;;;;;3.78;1.70;;;;;;;15.13;53.94;101903.25;5054656;28;20041;-57
2022/08/07 00:39:10;;;;;;;4.00;1.67;;;;;;;15.12;54.34;101914.78;5047657;28;20052;-56
2022/08/07 00:41:53;;;;;;;3.85;1.60;;;;;;;15.12;54.28;101903.31;5041886;28;20069;-58
2022/08/07 00:44:32;;;;;;;5.70;1.95;;;;;;;15.10;54.52;101908.72;5057090;28;20060;-59
2022/08/07 00:47:03;;;;;;;5.05;1.80;;;;;;;15.09;54.76;101903.50;5048537;28;20059;-60
2022/08/07 00:49:41;;;;;;;4.57;2.05;;;;;;;15.05;54.63;101897.53;5056071;28;20061;-62
2022/08/07 00:52:28;;;;;;;4.15;1.63;;;;;;;15.04;54.58;101905.53;5056112;28;20539;-56
2022/08/07 00:54:59;;;;;;;5.82;1.92;;;;;;;15.03;55.37;101903.84;5030123;28;20055;-54
2022/08/07 00:57:36;;;;;;;7.05;2.15;;;;;;;15.00;55.35;101894.28;5054555;28;20052;-57
2022/08/07 01:00:10;;;;;;;3.70;1.83;;;;;;;14.98;55.66;101893.50;5051120;28;20064;-53
2022/08/07 01:02:39;;;;;;;2.85;1.50;;;;;;;14.96;56.12;101898.03;5056789;28;20044;-54
2022/08/07 01:05:07;;;;;;;3.15;1.50;;;;;;;14.93;56.00;101906.16;5049185;28;20049;-59
2022/08/07 01:07:45;;;;;;;2.75;1.50;;;;;;;14.89;56.02;101897.53;5046034;28;20084;-59
2022/08/07 01:10:21;;;;;;;4.13;1.90;;;;;;;14.86;56.60;101900.38;5047999;28;20053;-59
2022/08/07 01:12:49;;;;;;;4.60;1.83;;;;;;;14.84;56.41;101904.88;5049212;28;20140;-57
2022/08/07 01:15:22;;;;;;;5.85;1.60;;;;;;;14.82;56.76;101900.63;5059048;28;20066;-56
2022/08/07 01:18:09;;;;;;;2.95;1.67;;;;;;;14.79;56.63;101903.44;5056393;28;20049;-56
2022/08/07 01:20:47;;;;;;;5.18;1.52;;;;;;;14.76;56.37;101903.59;5040709;28;20044;-58
2022/08/07 01:23:27;;;;;;;3.25;2.05;;;;;;;14.73;56.37;101906.44;5046143;28;20049;-57
2022/08/07 01:26:12;;;;;;;4.70;1.80;;;;;;;14.72;56.58;101902.06;5050866;28;20053;-61
2022/08/07 01:28:43;;;;;;;5.10;1.80;;;;;;;14.71;56.55;101895.91;5049582;28;20048;-59
2022/08/07 01:31:18;;;;;;;2.15;1.73;;;;;;;14.69;56.61;101901.31;5053537;28;20064;-55
2022/08/07 01:33:46;;;;;;;2.67;1.50;;;;;;;14.66;56.84;101898.81;5042840;28;20095;-56
2022/08/07 01:36:23;;;;;;;3.95;1.95;;;;;;;14.65;57.40;101896.28;5050149;28;20045;-58
2022/08/07 01:39:00;;;;;;;6.55;1.73;;;;;;;14.63;57.39;101898.13;5049007;28;20057;-60
2022/08/07 01:41:30;;;;;;;1.92;1.45;;;;;;;14.60;57.73;101895.69;5032701;28;20059;-59
2022/08/07 01:43:58;;;;;;;4.00;1.63;;;;;;;14.57;57.69;101896.69;5052595;28;20497;-54
2022/08/07 01:46:27;;;;;;;3.15;1.98;;;;;;;14.52;57.88;101893.44;5051022;28;20445;-58
2022/08/07 01:48:57;;;;;;;5.00;2.00;;;;;;;14.51;57.84;101901.47;5062208;28;20051;-58
2022/08/07 01:51:26;;;;;;;2.42;1.60;;;;;;;14.49;58.28;101900.69;5056098;28;20178;-60
2022/08/07 01:54:14;;;;;;;5.32;1.88;;;;;;;14.47;58.32;101902.56;5048589;28;20053;-57
2022/08/07 01:57:07;;;;;;;3.65;1.70;;;;;;;14.44;58.59;101904.41;5058727;28;20041;-53
2022/08/07 01:59:56;;;;;;;4.35;2.00;;;;;;;14.42;58.63;101902.81;5053785;28;20053;-60
2022/08/07 02:02:30;;;;;;;3.80;2.00;;;;;;;14.41;58.73;101903.75;5063303;28;20052;-59
2022/08/07 02:05:25;;;;;;;3.40;2.10;;;;;;;14.37;59.14;101907.50;5059808;28;20060;-57
2022/08/07 02:08:15;;;;;;;5.28;1.98;;;;;;;14.33;59.34;101906.81;5054647;28;20521;-52
2022/08/07 02:10:43;;;;;;;3.17;1.73;;;;;;;14.31;58.88;101911.31;5042027;28;20045;-59
2022/08/07 02:13:23;;;;;;;3.25;1.65;;;;;;;14.30;59.54;101903.47;5055030;28;20052;-58
2022/08/07 02:16:10;;;;;;;4.95;1.92;;;;;;;14.27;59.21;101903.63;5053588;28;20049;-55
2022/08/07 02:18:38;;;;;;;7.45;2.20;;;;;;;14.23;59.43;101902.06;5058157;28;20076;-56
2022/08/07 02:21:14;;;;;;;4.78;2.20;;;;;;;14.19;59.85;101899.63;5053086;28;20060;-53
2022/08/07 02:23:43;;;;;;;4.05;2.17;;;;;;;14.17;59.55;101900.63;5060946;28;20497;-55
2022/08/07 02:26:12;;;;;;;4.72;2.00;;;;;;;14.13;59.81;101899.06;5056843;28;20056;-52
2022/08/07 02:29:01;;;;;;;5.20;2.33;;;;;;;14.08;59.86;101906.41;5048018;28;20045;-57
2022/08/07 02:31:28;;;;;;;4.72;2.30;;;;;;;14.04;61.03;101900.41;5039860;28;20063;-57
2022/08/07 02:33:56;;;;;;;4.82;2.83;;;;;;;14.00;60.44;101903.31;5054655;28;20057;-60
2022/08/07 02:36:31;;;;;;;5.13;2.08;;;;;;;13.98;60.12;101908.69;5058708;28;20075;-59
2022/08/07 02:39:02;;;;;;;5.80;3.03;;;;;;;13.98;60.32;101903.41;5052982;28;20053;-58
2022/08/07 02:41:49;;;;;;;5.70;2.80;;;;;;;13.99;60.34;101901.59;5050768;28;20053;-56
2022/08/07 02:44:23;;;;;;;3.67;2.45;;;;;;;13.98;60.47;101908.69;5055607;28;20072;-55
2022/08/07 02:47:01;;;;;;;5.68;2.55;;;;;;;13.98;61.00;101905.19;5050441;28;20048;-56
2022/08/07 02:49:28;;;;;;;5.80;2.75;;;;;;;13.97;61.31;101906.13;5059061;28;20067;-57
2022/08/07 02:52:19;;;;;;;5.35;2.65;;;;;;;13.92;61.48;101901.94;5058589;28;20416;-57
2022/08/07 02:54:59;;;;;;;6.65;3.05;;;;;;;13.88;62.49;101900.38;5043155;28;20053;-58
2022/08/07 02:57:30;;;;;;;5.63;2.70;;;;;;;13.85;62.11;101897.88;5060250;28;20523;-53
2022/08/07 03:00:04;;;;;;;5.35;2.40;;;;;;;13.82;62.21;101894.53;5053019;28;20269;-57
2022/08/07 03:02:39;;;;;;;4.88;2.75;;;;;;;13.79;62.24;101902.66;5049862;28;20056;-58
2022/08/07 03:05:22;;;;;;;4.72;2.53;;;;;;;13.75;62.18;101896.66;5048980;28;20071;-58
2022/08/07 03:07:51;;;;;;;4.57;2.50;;;;;;;13.73;62.44;101903.81;5051870;28;20060;-54
2022/08/07 03:10:37;;;;;;;6.13;2.55;;;;;;;13.71;62.62;101902.19;5048375;28;20053;-56
2022/08/07 03:13:13;;;;;;;4.80;2.70;;;;;;;13.70;62.98;101900.50;5054187;28;20500;-56
2022/08/07 03:15:41;;;;;;;4.85;2.70;;;;;;;13.68;62.51;101906.69;5049098;28;20048;-60
2022/08/07 03:18:23;;;;;;;4.43;2.75;;;;;;;13.66;62.79;101900.63;5059804;28;20060;-55
2022/08/07 03:21:02;;;;;;;6.75;3.03;;;;;;;13.65;63.72;101909.53;5060093;22;21187;-60
2022/08/07 03:23:30;;;;;;;6.53;2.50;;;;;;;13.62;63.08;101904.38;5053485;28;20501;-57
2022/08/07 03:26:18;;;;;;;7.38;2.65;;;;;;;13.60;63.03;101906.25;5070423;28;20060;-60
2022/08/07 03:28:50;;;;;;;4.90;2.60;;;;;;;13.60;63.44;101905.41;5045810;28;20608;-58
2022/08/07 03:31:18;;;;;;;3.95;2.80;;;;;;;13.58;63.53;101899.31;5050385;28;20066;-58
2022/08/07 03:33:55;;;;;;;6.45;2.67;;;;;;;13.59;63.85;101904.53;5048049;28;20151;-58
2022/08/07 03:36:24;;;;;;;8.18;2.83;;;;;;;13.59;63.49;101906.31;5052218;28;20492;-58
2022/08/07 03:38:56;;;;;;;3.97;2.38;;;;;;;13.57;63.57;101906.41;5051061;28;20098;-59
2022/08/07 03:41:31;;;;;;;7.22;2.28;;;;;;;13.58;64.17;101909.91;5045384;28;20049;-57
2022/08/07 03:44:14;;;;;;;5.18;2.30;;;;;;;13.57;63.64;101905.56;5061236;28;20061;-57
2022/08/07 03:46:41;;;;;;;5.53;2.67;;;;;;;13.55;64.46;101910.03;5051895;28;20163;-57
2022/08/07 03:49:29;;;;;;;5.95;2.50;;;;;;;13.53;64.32;101906.63;5045680;28;20060;-57
2022/08/07 03:51:58;;;;;;;4.93;2.92;;;;;;;13.53;65.22;101904.00;5055660;28;20068;-58
2022/08/07 03:54:27;;;;;;;4.03;2.30;;;;;;;13.53;64.21;101910.13;5052564;28;20052;-60
2022/08/07 03:57:04;;;;;;;5.18;2.22;;;;;;;13.55;64.65;101910.91;5057090;28;20055;-58
2022/08/07 03:59:33;;;;;;;7.43;2.53;;;;;;;13.57;64.49;101913.50;5050957;28;20135;-56
2022/08/07 04:02:01;;;;;;;7.22;2.38;;;;;;;13.60;64.56;101916.00;5055141;28;20072;-57
2022/08/07 04:04:29;;;;;;;4.22;2.13;;;;;;;13.59;64.63;101909.81;5053587;28;20057;-56
2022/08/07 04:06:58;;;;;;;3.55;2.50;;;;;;;13.61;64.26;101912.41;5052774;28;20060;-56
2022/08/07 04:09:27;;;;;;;3.78;2.25;;;;;;;13.63;64.36;101916.66;5049884;28;20061;-56
2022/08/07 04:12:12;;;;;;;7.47;3.17;;;;;;;13.66;64.33;101915.66;5055146;28;20122;-54
2022/08/07 04:14:55;;;;;;;5.22;2.70;;;;;;;13.70;64.31;101911.94;5053118;28;20053;-53
2022/08/07 04:17:22;;;;;;;6.18;2.80;;;;;;;13.72;63.90;101911.84;5058511;28;20056;-54
2022/08/07 04:20:11;;;;;;;5.93;2.70;;;;;;;13.83;65.19;101912.16;5046317;28;20061;-58
2022/08/07 04:22:39;;;;;;;4.00;2.30;;;;;;;13.95;65.27;101916.78;5065630;28;20076;-57
2022/08/07 04:25:21;;;;;;;5.78;2.70;;;;;;;14.04;65.38;101916.31;5050744;28;20068;-58
2022/08/07 04:27:50;;;;;;;4.63;2.17;;;;;;;14.13;65.00;101915.81;5055909;28;20053;-57
2022/08/07 04:30:27;;;;;;;6.10;2.40;;;;;;;14.23;64.51;101915.31;5045721;28;21030;-58
2022/08/07 04:33:15;;;;;;;7.50;2.38;;;;;;;14.33;64.62;101913.91;5049310;28;20048;-55
2022/08/07 04:35:46;;;;;;;4.05;2.30;;;;;;;14.41;63.65;101915.19;5053544;28;20056;-59
2022/08/07 04:38:17;;;;;;;5.07;2.40;;;;;;;14.48;63.52;101913.09;5051964;28;20057;-56
2022/08/07 04:40:45;;;;;;;6.22;2.83;;;;;;;14.53;62.85;101910.19;5047983;28;20505;-57
2022/08/07 04:43:33;;;;;;;7.00;3.30;;;;;;;14.59;62.60;101923.97;5054703;28;20060;-60
2022/08/07 04:46:49;;;;;;;5.78;2.55;;;;;;;14.65;62.12;101913.03;5052828;28;20060;-58
2022/08/07 04:49:52;;;;;;;5.15;2.70;;;;;;;14.73;61.89;101919.72;5049958;28;20524;-58
2022/08/07 04:52:38;;;;;;;4.97;2.60;;;;;;;14.80;61.77;101921.06;5054667;28;20056;-57
2022/08/07 04:55:21;;;;;;;6.40;2.28;;;;;;;14.85;61.52;101924.28;5051556;28;20055;-57
2022/08/07 04:58:36;;;;;;;5.88;2.53;;;;;;;14.93;61.06;101925.56;5052128;28;20049;-57
2022/08/07 05:01:44;;;;;;;4.22;2.28;;;;;;;15.06;60.65;101927.53;5049962;28;20053;-60
2022/08/07 05:04:36;;;;;;;6.35;2.72;;;;;;;15.16;60.24;101924.25;5053156;28;20049;-57
2022/08/07 05:07:22;;;;;;;5.65;2.53;;;;;;;15.28;59.57;101929.81;5054245;28;20346;-55
2022/08/07 05:10:10;;;;;;;5.60;2.28;;;;;;;15.34;59.05;101924.16;5049576;28;20049;-56
2022/08/07 05:12:41;;;;;;;3.80;2.50;;;;;;;15.44;58.73;101923.53;5033821;28;20053;-59
2022/08/07 05:15:24;;;;;;;3.75;2.15;;;;;;;15.55;58.36;101917.59;5051499;28;20555;-57
2022/08/07 05:17:56;;;;;;;4.32;2.00;;;;;;;15.63;57.40;101925.97;5048159;28;20056;-52
2022/08/07 05:20:26;;;;;;;5.88;2.55;;;;;;;15.63;57.14;101925.97;5045897;28;20071;-57
2022/08/07 05:22:59;;;;;;;6.28;2.40;;;;;;;15.70;56.71;101927.31;5064506;28;20056;-54
2022/08/07 05:25:28;;;;;;;4.30;2.50;;;;;;;15.78;56.65;101932.19;5050599;28;20045;-55
2022/08/07 05:28:16;;;;;;;5.05;2.20;;;;;;;15.82;55.57;101928.41;5045297;28;20064;-58
2022/08/07 05:30:51;;;;;;;8.25;2.22;;;;;;;15.86;55.61;101929.91;5047431;28;20049;-55
2022/08/07 05:33:19;;;;;;;3.55;1.90;;;;;;;15.93;55.51;101935.69;5053956;28;20088;-54
2022/08/07 05:35:50;;;;;;;6.10;1.90;;;;;;;16.07;55.02;101934.84;5050933;28;20056;-58
2022/08/07 05:38:19;;;;;;;4.30;1.90;;;;;;;16.14;54.46;101926.44;5048879;28;20057;-56
2022/08/07 05:41:07;;;;;;;3.15;1.65;;;;;;;16.24;54.29;101933.84;5040009;28;20079;-57
2022/08/07 05:43:44;;;;;;;6.65;2.25;;;;;;;16.35;53.67;101932.22;5051586;28;20052;-59
2022/08/07 05:46:34;;;;;;;4.72;2.15;;;;;;;16.48;53.46;101936.75;5048145;28;20073;-57
2022/08/07 05:49:04;;;;;;;3.38;2.05;;;;;;;16.59;52.96;101935.13;5057835;28;20052;-57
2022/08/07 05:51:41;;;;;;;3.78;2.10;;;;;;;16.71;52.46;101939.69;5048972;28;20413;-59
2022/08/07 05:54:09;;;;;;;3.63;1.80;;;;;;;16.79;51.92;101941.00;5047783;28;20135;-55
2022/08/07 05:56:57;;;;;;;2.72;1.50;;;;;;;16.96;51.44;101946.09;5046609;28;20056;-57
2022/08/07 05:59:25;;;;;;;6.90;2.00;;;;;;;17.01;51.14;101936.00;5055430;28;20151;-58
2022/08/07 06:01:55;;;;;;;5.68;1.67;;;;;;;17.12;50.80;101938.00;5055874;28;20071;-58
2022/08/07 06:04:23;;;;;;;3.30;1.60;;;;;;;17.23;50.40;101935.47;5032403;28;20057;-59
2022/08/07 06:06:58;;;;;;;5.90;1.90;;;;;;;17.34;50.23;101940.09;5052255;28;20057;-57
2022/08/07 06:09:33;;;;;;;4.60;1.92;;;;;;;17.36;49.26;101946.16;5050032;28;20059;-57
2022/08/07 06:12:20;;;;;;;8.68;2.10;;;;;;;17.43;48.54;101944.81;5048191;28;20049;-58
2022/08/07 06:14:59;;;;;;;4.22;1.85;;;;;;;17.48;49.05;101947.16;5052213;28;20072;-57
2022/08/07 06:17:31;;;;;;;3.70;1.63;;;;;;;17.58;48.99;101946.41;5050058;28;20059;-57
2022/08/07 06:20:05;;;;;;;2.70;1.75;;;;;;;17.70;48.72;101942.94;5053967;28;20128;-55
2022/08/07 06:22:39;;;;;;;3.85;2.10;;;;;;;17.78;48.52;101949.56;5053875;28;20053;-58
2022/08/07 06:25:17;;;;;;;4.68;1.90;;;;;;;17.88;48.21;101951.53;5054245;28;20583;-58
2022/08/07 06:27:44;;;;;;;6.45;2.08;;;;;;;18.00;47.65;101951.63;5057584;28;20052;-56
2022/08/07 06:30:27;;;;;;;3.67;2.03;;;;;;;18.03;47.47;101954.94;5047225;28;20052;-57
2022/08/07 06:33:05;;;;;;;5.40;2.05;;;;;;;18.07;47.17;101950.25;5053148;28;20059;-58
2022/08/07 06:35:42;;;;;;;3.80;1.73;;;;;;;18.20;47.57;101948.44;5053708;28;20175;-57
2022/08/07 06:38:29;;;;;;;7.03;2.25;;;;;;;18.26;46.88;101958.66;5049032;28;20057;-58
2022/08/07 06:40:58;;;;;;;4.60;2.08;;;;;;;18.29;46.29;101953.13;5052382;28;20068;-57
2022/08/07 06:43:25;;;;;;;3.30;1.73;;;;;;;18.25;46.49;101958.78;5051136;28;20074;-57
2022/08/07 06:45:52;;;;;;;4.18;2.10;;;;;;;18.37;46.09;101960.53;5056795;28;20055;-59
2022/08/07 06:48:26;;;;;;;4.05;1.83;;;;;;;18.45;45.49;101959.06;5053532;28;20048;-56
2022/08/07 06:50:57;;;;;;;4.50;1.90;;;;;;;18.53;45.57;101968.34;5055861;28;20053;-56
2022/08/07 06:53:36;;;;;;;6.55;2.00;;;;;;;18.59;45.25;101958.06;5053999;28;20398;-58
2022/08/07 06:56:38;;;;;;;10.40;2.45;;;;;;;18.70;44.62;101957.34;5050148;28;20076;-59
2022/08/07 06:59:20;;;;;;;2.80;1.65;;;;;;;18.78;44.57;101954.97;5062555;28;20101;-59
2022/08/07 07:02:14;;;;;;;4.55;1.42;;;;;;;18.92;43.78;101960.16;5056021;28;20416;-59
2022/08/07 07:05:02;;;;;;;3.78;1.95;;;;;;;18.97;43.49;101950.00;5045247;28;20045;-56
2022/08/07 07:07:29;;;;;;;3.33;1.90;;;;;;;19.00;43.41;101951.56;5064250;28;20412;-57
2022/08/07 07:10:26;;;;;;;3.78;1.60;;;;;;;19.12;43.34;101948.00;5053693;28;20052;-58
2022/08/07 07:12:57;;;;;;;2.75;1.65;;;;;;;19.16;42.80;101949.50;5038865;28;20424;-56
2022/08/07 07:15:27;;;;;;;3.92;1.73;;;;;;;19.22;43.02;101962.38;5053509;28;20075;-55
2022/08/07 07:18:24;;;;;;;2.30;1.40;;;;;;;19.28;42.45;101957.56;5054641;28;20067;-57
2022/08/07 07:21:16;;;;;;;2.90;1.33;;;;;;;19.23;42.31;101949.91;5047221;28;20064;-56
2022/08/07 07:23:46;;;;;;;4.47;1.67;;;;;;;19.26;41.61;101956.81;5059190;28;20052;-56
2022/08/07 07:26:33;;;;;;;5.43;1.98;;;;;;;19.36;41.70;101955.16;5054727;28;20053;-57
2022/08/07 07:29:08;;;;;;;3.60;1.60;;;;;;;19.48;42.13;101962.25;5052784;28;20080;-58
2022/08/07 07:31:56;;;;;;;2.70;1.60;;;;;;;19.58;41.56;101949.03;5048963;28;20065;-59
2022/08/07 07:34:27;;;;;;;2.15;1.35;;;;;;;19.68;41.33;101945.59;5052905;28;20136;-58
2022/08/07 07:37:00;;;;;;;2.80;1.38;;;;;;;19.72;41.65;101947.06;5057651;28;20053;-57
2022/08/07 07:39:47;;;;;;;3.33;1.50;;;;;;;19.85;41.30;101946.97;5045148;28;20055;-56
2022/08/07 07:42:22;;;;;;;2.30;1.40;;;;;;;19.91;40.56;101937.63;5052748;28;20064;-58
2022/08/07 07:45:00;;;;;;;5.40;1.60;;;;;;;19.91;40.76;101941.16;5045107;28;20056;-59
2022/08/07 07:47:29;;;;;;;2.10;1.45;;;;;;;20.05;40.70;101937.41;5056148;28;20128;-54
2022/08/07 07:50:17;;;;;;;3.15;1.38;;;;;;;20.21;40.53;101934.38;5052000;28;20505;-57
2022/08/07 07:53:06;;;;;;;4.15;1.90;;;;;;;20.31;39.83;101937.16;5060680;28;20385;-57
2022/08/07 07:55:54;;;;;;;8.02;1.50;;;;;;;20.30;39.84;101936.31;5045770;28;20048;-53
2022/08/07 07:58:31;;;;;;;2.67;1.40;;;;;;;20.36;39.27;101930.50;5042043;28;20037;-57
2022/08/07 08:01:10;;;;;;;4.97;1.50;;;;;;;20.36;39.46;101930.50;5054132;28;20044;-55
2022/08/07 08:04:01;;;;;;;8.13;1.48;;;;;;;20.38;39.34;101917.84;5060609;28;20245;-58
2022/08/07 08:06:40;;;;;;;3.20;1.65;;;;;;;20.41;39.27;101917.59;5055160;28;20049;-59
2022/08/07 08:09:20;;;;;;;3.10;1.38;;;;;;;20.52;39.37;101929.28;5054286;28;20049;-57
2022/08/07 08:11:50;;;;;;;3.83;1.42;;;;;;;20.57;39.32;101922.59;5047785;28;20063;-56
2022/08/07 08:14:31;;;;;;;3.17;1.33;;;;;;;20.65;38.95;101919.31;5052278;28;20064;-56
2022/08/07 08:17:08;;;;;;;2.83;1.17;;;;;;;20.75;38.89;101920.25;5052775;28;20053;-54
2022/08/07 08:20:05;;;;;;;4.10;1.50;;;;;;;20.92;39.08;101911.69;5044160;28;20056;-59
2022/08/07 08:28:35;;;;;;;3.88;1.42;;;;;;;21.14;37.94;101909.94;5052326;28;20057;-58
2022/08/07 08:31:09;;;;;;;2.88;1.20;;;;;;;21.13;37.48;101913.59;5052551;28;20079;-59
2022/08/07 08:33:42;;;;;;;3.90;1.25;;;;;;;21.09;37.47;101904.09;5048135;28;20092;-59
2022/08/07 08:36:17;;;;;;;4.07;1.55;;;;;;;20.98;37.24;101910.34;5056715;28;20049;-56
2022/08/07 08:38:53;;;;;;;3.55;1.60;;;;;;;21.02;37.31;101903.75;5045321;28;20059;-57
2022/08/07 08:41:59;;;;;;;4.35;1.52;;;;;;;21.15;37.20;101907.09;5048412;28;20167;-56
2022/08/07 08:44:47;;;;;;;4.10;1.58;;;;;;;21.24;37.20;101916.22;5046540;28;20050;-58
2022/08/07 08:47:28;;;;;;;3.33;1.45;;;;;;;21.24;36.59;101906.34;5050964;28;20732;-53
2022/08/07 08:50:14;;;;;;;3.63;1.40;;;;;;;21.29;36.64;101905.09;5050372;28;20139;-56
2022/08/07 08:53:13;;;;;;;2.80;1.10;;;;;;;21.54;36.50;101904.78;5052800;28;20060;-56
2022/08/07 08:55:47;;;;;;;3.63;1.60;;;;;;;21.59;36.00;101905.22;5048078;28;20061;-58
2022/08/07 08:58:35;;;;;;;4.50;1.40;;;;;;;21.59;35.92;101897.19;5057118;28;20048;-56
2022/08/07 09:01:10;;;;;;;7.28;1.70;;;;;;;21.78;35.17;101896.44;5056172;28;20060;-57
2022/08/07 09:04:05;;;;;;;2.78;1.38;;;;;;;21.86;35.48;101901.16;5058839;28;20072;-54
2022/08/07 09:06:44;;;;;;;4.18;1.48;;;;;;;22.00;35.11;101896.28;5061030;28;20079;-58
2022/08/07 09:09:42;;;;;;;5.22;1.70;;;;;;;22.19;35.10;101897.38;5061247;28;20084;-56
2022/08/07 09:12:23;;;;;;;1.42;1.17;;;;;;;22.43;34.78;101889.88;5056483;28;20068;-56
2022/08/07 09:15:20;;;;;;;3.78;1.40;;;;;;;22.71;34.90;101880.16;5043560;28;20068;-65
2022/08/07 09:18:26;;;;;;;3.72;1.45;;;;;;;23.05;34.62;101884.31;5046618;28;20049;-57
2022/08/07 09:20:57;;;;;;;4.78;1.30;;;;;;;23.23;34.05;101883.47;5051218;28;20057;-58
2022/08/07 09:23:46;;;;;;;2.25;1.40;;;;;;;23.43;33.89;101884.31;5073348;22;20049;-59
2022/08/07 09:26:43;;;;;;;3.38;1.17;;;;;;;23.55;33.01;101882.31;5031046;28;20064;-58
2022/08/07 09:29:23;;;;;;;3.15;1.48;;;;;;;23.62;32.73;101880.72;5029201;28;20045;-56
2022/08/07 09:32:25;;;;;;;3.22;1.50;;;;;;;23.74;32.85;101870.69;5035265;28;20080;-61
2022/08/07 09:35:11;;;;;;;1.70;1.15;;;;;;;23.93;32.62;101876.00;5034451;28;20396;-58
2022/08/07 09:38:06;;;;;;;;;;;;;;;23.97;32.07;101874.72;5031013;28;20049;-58
2022/08/07 09:40:53;;;;;;;2.40;1.40;;;;;;;24.01;31.98;101859.13;5030474;28;20380;-60
2022/08/07 09:44:01;;;;;;;3.55;1.50;;;;;;;23.98;31.42;101862.13;5031712;28;20056;-60
2022/08/07 09:46:57;;;;;;;2.58;1.23;;;;;;;23.81;31.86;101868.25;5051114;28;20544;-60
2022/08/07 09:50:35;;;;;;;4.55;1.42;;;;;;;23.70;31.88;101869.28;5044032;28;20061;-59
2022/08/07 09:53:08;;;;;;;9.85;1.75;;;;;;;23.91;31.93;101858.31;5013422;28;20439;-60
2022/08/07 09:56:13;;;;;;;3.00;1.52;;;;;;;23.99;31.45;101853.03;5043139;28;20054;-61
2022/08/07 09:58:58;;;;;;;2.28;1.30;;;;;;;23.85;31.05;101853.53;5050939;28;20046;-60
2022/08/07 10:02:03;;;;;;;2.65;1.67;;;;;;;23.84;30.51;101851.84;5036014;28;20057;-61
2022/08/07 10:05:05;;;;;;;4.20;1.40;;;;;;;23.43;31.09;101853.91;5038118;28;20045;-60
2022/08/07 10:08:21;;;;;;;4.65;1.30;;;;;;;23.69;30.46;101846.94;5033527;28;20049;-60
2022/08/07 10:11:19;;;;;;;2.05;1.05;;;;;;;23.87;30.09;101828.19;5028250;28;20053;-60
2022/08/07 10:14:24;;;;;;;5.30;1.65;;;;;;;24.12;29.53;101832.03;5033254;28;20533;-61
2022/08/07 10:17:11;;;;;;;2.30;1.20;;;;;;;24.17;29.31;101828.88;5034544;28;20069;-60
2022/08/07 10:19:54;;;;;;;2.30;1.10;;;;;;;24.31;29.51;101824.84;5032044;28;20072;-61
2022/08/07 10:22:49;;;;;;;2.88;1.35;;;;;;;24.72;29.55;101827.03;5043112;28;20045;-60
2022/08/07 10:25:26;;;;;;;;;;;;;;;24.88;28.60;101825.47;5036347;28;20053;-59
2022/08/07 10:28:31;;;;;;;2.20;1.25;;;;;;;24.87;28.59;101819.22;5046659;28;19921;-61
2022/08/07 10:31:09;;;;;;;2.63;1.10;;;;;;;24.84;28.60;101811.44;5037098;28;20041;-60
2022/08/07 10:34:02;;;;;;;2.85;1.20;;;;;;;24.99;28.70;101809.03;5032863;28;20053;-59
2022/08/07 10:36:47;;;;;;;2.92;1.15;;;;;;;25.28;28.80;101805.28;5053927;28;20060;-59
2022/08/07 10:39:44;;;;;;;3.42;1.25;;;;;;;25.12;28.53;101804.13;5037545;28;20049;-60
2022/08/07 10:43:08;;;;;;;2.45;1.30;;;;;;;24.60;28.70;101806.69;5032015;28;20049;-59
2022/08/07 10:46:03;;;;;;;3.63;1.25;;;;;;;24.13;29.08;101803.28;5026101;28;20049;-60
2022/08/07 10:49:09;;;;;;;2.13;1.10;;;;;;;24.01;29.68;101797.28;5021970;28;20425;-60
2022/08/07 10:51:41;;;;;;;3.83;1.80;;;;;;;23.96;29.46;101794.19;5051192;28;20544;-59
2022/08/07 10:54:40;;;;;;;4.97;1.60;;;;;;;23.85;29.52;101797.06;5034365;28;20501;-58
2022/08/07 10:57:36;;;;;;;4.60;1.20;;;;;;;23.74;29.66;101795.41;5035691;28;20432;-59
2022/08/07 11:00:12;;;;;;;4.95;1.92;;;;;;;23.56;29.84;101789.94;5027048;28;20057;-59
2022/08/07 11:03:05;;;;;;;2.08;1.10;;;;;;;23.74;30.32;101782.81;5039653;28;20103;-57
2022/08/07 11:06:02;;;;;;;2.85;1.45;;;;;;;23.97;30.39;101785.97;5032483;28;20053;-60
2022/08/07 11:08:42;;;;;;;2.72;1.20;;;;;;;24.02;29.71;101785.50;5050061;28;20072;-60
2022/08/07 11:11:19;;;;;;;3.78;1.20;;;;;;;24.05;29.51;101785.22;5049149;28;20049;-56
2022/08/07 11:13:51;;;;;;;3.45;1.30;;;;;;;23.85;29.55;101780.91;5035611;28;20412;-58
2022/08/07 11:16:52;;;;;;;3.70;1.15;;;;;;;23.89;29.45;101774.25;5032229;28;20053;-58
2022/08/07 11:19:41;;;;;;;4.30;1.20;;;;;;;23.81;29.69;101774.16;5029797;28;20054;-59
2022/08/07 11:22:26;;;;;;;4.07;1.40;;;;;;;24.17;29.45;101762.47;5039884;28;20516;-56
2022/08/07 11:25:18;;;;;;;3.28;1.38;;;;;;;24.25;29.35;101759.88;5033609;28;20064;-58
2022/08/07 11:28:07;;;;;;;1.58;0.90;;;;;;;24.70;29.00;101760.84;5030951;28;20054;-59
2022/08/07 11:30:50;;;;;;;3.88;1.05;;;;;;;24.86;27.70;101758.28;5037375;28;20052;-58
2022/08/07 11:33:45;;;;;;;1.55;0.93;;;;;;;24.87;28.17;101759.97;5032623;28;20053;-58
2022/08/07 11:36:57;;;;;;;3.35;1.00;;;;;;;24.99;27.51;101752.47;5040309;28;20056;-59
2022/08/07 11:39:41;;;;;;;1.88;1.00;;;;;;;25.14;27.93;101750.09;5037941;28;20414;-58
2022/08/07 11:42:49;;;;;;;2.10;0.98;;;;;;;25.55;27.91;101745.78;5031170;28;20041;-58
2022/08/07 11:45:53;;;;;;;3.22;1.50;;;;;;;25.55;26.75;101736.84;5035507;28;20049;-59
2022/08/07 11:48:33;;;;;;;1.83;0.90;;;;;;;25.18;26.89;101744.25;5042678;28;20061;-59
2022/08/07 11:51:49;;;;;;;2.38;1.10;;;;;;;25.22;27.46;101745.63;5044457;28;20053;-58
2022/08/07 11:54:45;;;;;;;3.47;1.20;;;;;;;25.39;27.24;101745.69;5004873;28;20728;-58
2022/08/07 11:57:43;;;;;;;2.78;1.30;;;;;;;25.27;27.18;101741.59;5052899;28;20046;-59
2022/08/07 12:01:01;;;;;;;2.20;1.27;;;;;;;25.41;27.85;101732.91;5031968;28;20049;-57
2022/08/07 12:03:46;;;;;;;7.15;1.35;;;;;;;25.80;28.52;101730.56;5045015;28;20049;-56
2022/08/07 12:06:28;;;;;;;2.35;1.30;;;;;;;25.72;27.40;101727.84;5045151;28;20064;-58
2022/08/07 12:09:15;;;;;;;2.65;1.40;;;;;;;25.80;27.57;101722.47;5026673;28;20041;-57
2022/08/07 12:11:58;;;;;;;2.80;1.20;;;;;;;26.19;27.52;101717.34;5043634;28;20057;-57
2022/08/07 12:14:43;;;;;;;2.55;1.30;;;;;;;26.77;27.31;101716.41;5045667;28;20061;-59
2022/08/07 12:17:23;;;;;;;1.73;1.23;;;;;;;27.26;25.81;101715.50;5031075;28;20064;-60
2022/08/07 12:19:58;;;;;;;3.17;1.25;;;;;;;27.57;25.38;101722.84;5043989;28;20056;-58
2022/08/07 12:23:08;;;;;;;2.28;1.33;;;;;;;28.12;25.53;101709.22;5038943;28;20049;-58
2022/08/07 12:25:55;;;;;;;1.95;1.10;;;;;;;28.64;25.11;101722.06;4991884;28;20418;-59
2022/08/07 12:29:01;;;;;;;2.55;1.23;;;;;;;29.01;23.88;101718.53;5035935;28;20064;-56
2022/08/07 12:31:32;;;;;;;3.83;1.20;;;;;;;29.32;23.70;101701.25;5034541;28;20049;-61
2022/08/07 12:34:19;;;;;;;2.72;1.20;;;;;;;29.33;23.40;101702.09;5036906;28;20045;-59
2022/08/07 12:36:50;;;;;;;1.65;1.20;;;;;;;29.46;23.29;101703.09;5030126;28;20075;-60
2022/08/07 12:39:18;;;;;;;3.40;1.52;;;;;;;29.65;22.16;101703.56;5032735;28;20049;-58